createdAt,value
2022-10-03T00:00:59.194Z,99585.42
2022-10-03T00:03:04.753Z,99586.01
2022-10-03T00:05:10.996Z,99583.72
2022-10-03T00:07:16.864Z,99587.7
2022-10-03T00:09:22.500Z,99584.67
2022-10-03T00:11:28.339Z,99579.12
2022-10-03T00:13:33.608Z,99576.67
2022-10-03T00:15:39.700Z,99573.63
2022-10-03T00:17:45.470Z,99569.8
2022-10-03T00:19:50.813Z,99570.52
2022-10-03T00:21:56.197Z,99572.45
2022-10-03T00:24:01.933Z,99567.17
2022-10-03T00:26:07.197Z,99570.08
2022-10-03T00:28:12.405Z,99571.37
2022-10-03T00:30:18.117Z,99571.91
2022-10-03T00:32:23.540Z,99566.66
2022-10-03T00:34:29.335Z,99570.78
2022-10-03T00:36:34.493Z,99569.02
2022-10-03T00:38:39.848Z,99566.72
2022-10-03T00:40:45.173Z,99570.77
2022-10-03T00:42:50.638Z,99569.57
2022-10-03T00:44:56.039Z,99569.63
2022-10-03T00:47:01.788Z,99564.33
2022-10-03T00:49:07.266Z,99558.95
2022-10-03T00:51:12.808Z,99561.16
2022-10-03T00:53:18.209Z,99558.98
2022-10-03T00:55:23.687Z,99550.26
2022-10-03T00:57:29.541Z,99546.17
2022-10-03T00:59:34.903Z,99548.81
2022-10-03T01:01:40.953Z,99551.3
2022-10-03T01:03:47.695Z,99545.52
2022-10-03T01:05:53.135Z,99549.31
2022-10-03T01:07:58.412Z,99543.92
2022-10-03T01:10:03.944Z,99542.75
2022-10-03T01:12:09.694Z,99544.57
2022-10-03T01:14:18.191Z,99543.19
2022-10-03T01:16:23.813Z,99536.89
2022-10-03T01:18:29.440Z,99538.67
2022-10-03T01:20:34.822Z,99538.13
2022-10-03T01:22:40.208Z,99538.14
2022-10-03T01:24:45.621Z,99532.08
2022-10-03T01:26:50.868Z,99529.81
2022-10-03T01:28:56.235Z,99528.3
2022-10-03T01:31:02.013Z,99528.36
2022-10-03T01:33:07.681Z,99530.55
2022-10-03T01:35:12.974Z,99529.66
2022-10-03T01:37:18.389Z,99529.18
2022-10-03T01:39:24.029Z,99530.84
2022-10-03T01:41:29.624Z,99534.56
2022-10-03T01:43:35.185Z,99517.52
2022-10-03T01:45:40.470Z,99518.86
2022-10-03T01:47:45.880Z,99520.59
2022-10-03T01:49:51.220Z,99519.41
2022-10-03T01:51:56.719Z,99515.38
2022-10-03T01:54:02.112Z,99517.66
2022-10-03T01:56:07.540Z,99519.96
2022-10-03T01:58:16.327Z,99521.72
2022-10-03T02:00:21.898Z,99516.97
2022-10-03T02:02:28.008Z,99524.67
2022-10-03T02:04:33.841Z,99521.47
2022-10-03T02:06:39.182Z,99516.09
2022-10-03T02:08:44.482Z,99514.59
2022-10-03T02:10:50.934Z,99517.38
2022-10-03T02:12:59.494Z,99515.13
2022-10-03T02:15:05.214Z,99518.17
2022-10-03T02:17:10.577Z,99514.05
2022-10-03T02:19:15.938Z,99518.41
2022-10-03T02:21:21.411Z,99516.69
2022-10-03T02:23:26.879Z,99506.11
2022-10-03T02:25:32.291Z,99518.34
2022-10-03T02:27:37.450Z,99514.58
2022-10-03T02:29:42.770Z,99513.53
2022-10-03T02:31:48.755Z,99509.77
2022-10-03T02:33:54.506Z,99503.96
2022-10-03T02:36:00.007Z,99502.5
2022-10-03T02:38:06.033Z,99505.16
2022-10-03T02:40:11.522Z,99506.67
2022-10-03T02:42:16.946Z,99504.47
2022-10-03T02:44:22.490Z,99507.16
2022-10-03T02:46:28.065Z,99505.38
2022-10-03T02:48:33.946Z,99507.52
2022-10-03T02:50:40.153Z,99506.8
2022-10-03T02:52:45.677Z,99502.19
2022-10-03T02:54:51.206Z,99501.11
2022-10-03T02:56:56.666Z,99499
2022-10-03T02:59:02.217Z,99497.25
2022-10-03T03:01:07.525Z,99500.13
2022-10-03T03:03:13.654Z,99498.23
2022-10-03T03:05:19.145Z,99494.44
2022-10-03T03:07:24.616Z,99493.8
2022-10-03T03:09:30.194Z,99489.5
2022-10-03T03:11:35.591Z,99487.08
2022-10-03T03:13:42.143Z,99490.64
2022-10-03T03:15:47.920Z,99487.52
2022-10-03T03:17:53.333Z,99489.56
2022-10-03T03:19:59.104Z,99486.07
2022-10-03T03:22:04.598Z,99479.84
2022-10-03T03:24:10.311Z,99482.3
2022-10-03T03:26:15.379Z,99491.77
2022-10-03T03:28:20.940Z,99479.56
2022-10-03T03:30:26.925Z,99479.98
2022-10-03T03:32:35.916Z,99479.21
2022-10-03T03:34:41.561Z,99480.3
2022-10-03T03:36:46.856Z,99475.75
2022-10-03T03:38:53.004Z,99473.2
2022-10-03T03:40:58.500Z,99473.41
2022-10-03T03:43:04.373Z,99476.67
2022-10-03T03:45:09.977Z,99467.38
2022-10-03T03:47:16.589Z,99470.09
2022-10-03T03:49:22.884Z,99465.95
2022-10-03T03:51:28.889Z,99463.78
2022-10-03T03:53:34.685Z,99463.19
2022-10-03T03:55:41.047Z,99471.39
2022-10-03T03:57:47.328Z,99469.36
2022-10-03T03:59:53.604Z,99462.84
2022-10-03T04:01:59.871Z,99464.02
2022-10-03T04:04:06.436Z,99459.48
2022-10-03T04:06:12.304Z,99454.98
2022-10-03T04:08:17.989Z,99454.7
2022-10-03T04:10:23.992Z,99451.23
2022-10-03T04:12:29.971Z,99451.87
2022-10-03T04:14:36.274Z,99452.66
2022-10-03T04:16:41.910Z,99447.2
2022-10-03T04:18:47.281Z,99453.75
2022-10-03T04:20:53.198Z,99447.05
2022-10-03T04:22:58.726Z,99444.06
2022-10-03T04:25:04.414Z,99438.17
2022-10-03T04:27:09.829Z,99440.29
2022-10-03T04:29:15.257Z,99443.28
2022-10-03T04:31:21.143Z,99439.91
2022-10-03T04:33:27.145Z,99439.35
2022-10-03T04:35:33.144Z,99436.97
2022-10-03T04:37:39.325Z,99431.59
2022-10-03T04:39:45.459Z,99431.84
2022-10-03T04:41:51.508Z,99430.83
2022-10-03T04:43:58.896Z,99425.55
2022-10-03T04:46:05.604Z,99423.72
2022-10-03T04:48:11.881Z,99424.28
2022-10-03T04:50:18.525Z,99424.67
2022-10-03T04:52:24.933Z,99419.14
2022-10-03T04:54:30.770Z,99416.6
2022-10-03T04:56:37.114Z,99417.5
2022-10-03T04:58:43.424Z,99406.27
2022-10-03T05:00:50.095Z,99415.86
2022-10-03T05:02:56.363Z,99416.16
2022-10-03T05:05:02.395Z,99412.56
2022-10-03T05:07:09.046Z,99411.39
2022-10-03T05:09:15.309Z,99421.33
2022-10-03T05:11:21.614Z,99410.61
2022-10-03T05:13:27.913Z,99412.34
2022-10-03T05:15:35.086Z,99417.95
2022-10-03T05:17:42.562Z,99413.73
2022-10-03T05:19:49.613Z,99412.92
2022-10-03T05:21:56.147Z,99409.16
2022-10-03T05:24:02.478Z,99409.2
2022-10-03T05:26:46.033Z,99405.02
2022-10-03T05:28:53.177Z,99406.36
2022-10-03T05:30:59.859Z,99410.29
2022-10-03T05:33:10.224Z,99411.19
2022-10-03T05:35:16.346Z,99407.73
2022-10-03T05:37:22.772Z,99407.16
2022-10-03T05:39:29.291Z,99405.84
2022-10-03T05:41:36.012Z,99406.06
2022-10-03T05:43:42.815Z,99405.3
2022-10-03T05:45:49.385Z,99403.17
2022-10-03T05:47:56.287Z,99401.96
2022-10-03T05:50:05.646Z,99400.71
2022-10-03T05:52:21.939Z,99405.02
2022-10-03T05:54:28.270Z,99405.6
2022-10-03T05:56:41.100Z,99412.58
2022-10-03T05:58:47.584Z,99400.77
2022-10-03T06:00:54.398Z,99405.09
2022-10-03T06:03:01.173Z,99403.19
2022-10-03T06:05:08.366Z,99412.33
2022-10-03T06:07:17.289Z,99409.77
2022-10-03T06:09:27.691Z,99413.28
2022-10-03T06:11:34.271Z,99415.3
2022-10-03T06:13:40.714Z,99416.14
2022-10-03T06:15:46.863Z,99415.53
2022-10-03T06:17:53.590Z,99404.14
2022-10-03T06:20:03.057Z,99406.08
2022-10-03T06:22:09.836Z,99403.49
2022-10-03T06:24:18.714Z,99396.7
2022-10-03T06:26:34.731Z,99401.59
2022-10-03T06:28:41.293Z,99394.4
2022-10-03T06:30:50.636Z,99394.52
2022-10-03T06:33:01.779Z,99394.07
2022-10-03T06:35:11.809Z,99393.48
2022-10-03T06:37:18.238Z,99393.52
2022-10-03T06:39:25.113Z,99388.52
2022-10-03T06:41:34.583Z,99388.45
2022-10-03T06:43:43.868Z,99385.2
2022-10-03T06:45:54.411Z,99393.05
2022-10-03T06:48:01.568Z,99386.13
2022-10-03T06:53:12.306Z,99380.09
2022-10-03T06:55:28.604Z,99383.72
2022-10-03T06:57:37.834Z,99370.53
2022-10-03T06:59:50.984Z,99371.91
2022-10-03T07:01:58.560Z,99375.18
2022-10-03T07:04:19.334Z,99373.89
2022-10-03T07:06:40.658Z,99382.77
2022-10-03T07:08:48.145Z,99380.25
2022-10-03T07:10:59.353Z,99386.42
2022-10-03T07:13:09.294Z,99385.28
2022-10-03T07:16:04.960Z,99376.87
2022-10-03T07:18:51.349Z,99371.91
2022-10-03T07:21:04.622Z,99370.89
2022-10-03T07:23:20.659Z,99372.72
2022-10-03T07:25:33.252Z,99375.41
2022-10-03T07:27:46.301Z,99373.25
2022-10-03T07:29:57.190Z,99370.03
2022-10-03T07:32:10.285Z,99373.8
2022-10-03T07:34:29.246Z,99376.91
2022-10-03T07:36:43.824Z,99377.95
2022-10-03T07:38:54.583Z,99396.09
2022-10-03T07:41:03.675Z,99377.47
2022-10-03T07:43:10.385Z,99390.81
2022-10-03T07:48:04.950Z,99388.19
2022-10-03T07:50:15.109Z,99384.66
2022-10-03T07:52:21.739Z,99397.34
2022-10-03T07:54:27.954Z,99387.72
2022-10-03T07:56:34.673Z,99392.66
2022-10-03T07:58:44.336Z,99395.66
2022-10-03T08:00:51.020Z,99391.16
2022-10-03T08:08:35.662Z,99399.39
2022-10-03T08:10:42.431Z,99396.5
2022-10-03T08:12:49.077Z,99392.67
2022-10-03T08:14:58.548Z,99394.36
2022-10-03T08:17:25.796Z,99385.74
2022-10-03T08:19:32.357Z,99391.41
2022-10-03T08:21:41.942Z,99391.69
2022-10-03T08:26:55.493Z,99375.03
2022-10-03T08:29:02.126Z,99375.67
2022-10-03T08:31:11.119Z,99382.63
2022-10-03T08:55:24.590Z,99370.91
2022-10-03T09:11:30.537Z,99384.52
2022-10-03T09:16:20.250Z,99375.52
2022-10-03T09:18:32.997Z,99387.35
2022-10-03T10:01:52.656Z,99414.79
2022-10-03T10:07:18.752Z,99423.03
2022-10-03T10:19:18.595Z,99426.34
2022-10-03T10:24:46.540Z,99443.54
2022-10-03T10:30:12.899Z,99448.77
2022-10-03T10:35:44.876Z,99466.86
2022-10-03T10:37:58.270Z,99477.56
2022-10-03T10:40:08.150Z,99471.53
2022-10-03T10:42:15.134Z,99478.23
2022-10-03T10:44:21.750Z,99480.31
2022-10-03T10:46:28.858Z,99471.1
2022-10-03T10:48:38.302Z,99485.7
2022-10-03T10:50:45.082Z,99484.46
2022-10-03T10:52:51.753Z,99487.25
2022-10-03T10:55:06.402Z,99481.04
2022-10-03T10:57:15.716Z,99479.5
2022-10-03T10:59:23.083Z,99490.52
2022-10-03T11:01:36.169Z,99487.95
2022-10-03T11:03:55.087Z,99490.86
2022-10-03T11:06:04.333Z,99502.79
2022-10-03T11:08:17.929Z,99508.45
2022-10-03T11:10:30.917Z,99506.13
2022-10-03T11:12:43.294Z,99505.72
2022-10-03T11:14:53.608Z,99516.92
2022-10-03T11:17:00.047Z,99505.7
2022-10-03T11:19:09.497Z,99520.02
2022-10-03T11:21:23.534Z,99502.7
2022-10-03T11:23:33.296Z,99526.83
2022-10-03T11:25:45.360Z,99515.13
2022-10-03T11:27:55.445Z,99517.84
2022-10-03T11:30:02.139Z,99518.34
2022-10-03T11:32:17.747Z,99517.8
2022-10-03T11:34:24.547Z,99529.56
2022-10-03T11:36:34.235Z,99523.48
2022-10-03T11:38:40.416Z,99525.97
2022-10-03T11:40:48.885Z,99543.43
2022-10-03T11:42:55.563Z,99533.2
2022-10-03T11:45:02.099Z,99541.54
2022-10-03T11:47:11.429Z,99551.47
2022-10-03T11:49:17.834Z,99529.3
2022-10-03T11:51:27.508Z,99538.47
2022-10-03T11:53:41.131Z,99534.11
2022-10-03T11:55:47.733Z,99548.73
2022-10-03T11:57:59.204Z,99548.56
2022-10-03T12:00:16.981Z,99539.66
2022-10-03T12:02:26.123Z,99546.19
2022-10-03T12:04:32.533Z,99536.58
2022-10-03T12:06:49.559Z,99527.28
2022-10-03T12:08:59.298Z,99540.3
2022-10-03T12:11:12.146Z,99551.74
2022-10-03T12:13:35.777Z,99548.25
2022-10-03T12:15:55.797Z,99550.87
2022-10-03T12:18:06.552Z,99549.7
2022-10-03T12:20:21.371Z,99539.12
2022-10-03T12:22:41.788Z,99555.86
2022-10-03T12:24:56.683Z,99560.64
2022-10-03T12:27:07.135Z,99558.94
2022-10-03T12:29:16.756Z,99553.3
2022-10-03T12:31:45.769Z,99574.78
2022-10-03T12:34:19.054Z,99570.95
2022-10-03T12:37:03.267Z,99570.09
2022-10-03T12:39:28.640Z,99576.52
2022-10-03T12:41:44.572Z,99573.66
2022-10-03T12:44:06.813Z,99592.16
2022-10-03T12:46:44.380Z,99591.79
2022-10-03T12:49:16.491Z,99581.31
2022-10-03T12:51:31.241Z,99589.35
2022-10-03T12:53:51.589Z,99596.76
2022-10-03T12:56:01.267Z,99594.25
2022-10-03T12:58:07.741Z,99599.33
2022-10-03T13:00:20.781Z,99595.16
2022-10-03T13:02:35.885Z,99610.77
2022-10-03T13:04:46.114Z,99610.7
2022-10-03T13:07:05.865Z,99610.13
2022-10-03T13:09:17.870Z,99604.01
2022-10-03T13:11:26.828Z,99599.81
2022-10-03T13:13:36.439Z,99627.52
2022-10-03T13:15:43.510Z,99614.73
2022-10-03T13:17:51.208Z,99617.71
2022-10-03T13:20:01.583Z,99616.3
2022-10-03T13:22:07.800Z,99625.27
2022-10-03T13:24:17.026Z,99617.08
2022-10-03T13:26:30.210Z,99620.38
2022-10-03T13:28:38.351Z,99633.41
2022-10-03T13:30:45.163Z,99635.75
2022-10-03T13:32:57.296Z,99640.8
2022-10-03T13:35:04.205Z,99640.41
2022-10-03T13:37:10.867Z,99639.7
2022-10-03T13:39:24.123Z,99649.63
2022-10-03T13:41:40.747Z,99644.91
2022-10-03T13:43:51.115Z,99646.31
2022-10-03T13:45:58.122Z,99625.52
2022-10-03T13:48:04.756Z,99647.59
2022-10-03T13:50:14.583Z,99650.97
2022-10-03T13:52:23.268Z,99655.78
2022-10-03T13:54:35.783Z,99650.14
2022-10-03T13:56:47.898Z,99658.28
2022-10-03T13:59:04.343Z,99662.75
2022-10-03T14:01:23.711Z,99668.66
2022-10-03T14:03:30.399Z,99675.04
2022-10-03T14:05:41.129Z,99671.19
2022-10-03T14:07:49.350Z,99674.59
2022-10-03T14:09:55.826Z,99675.66
2022-10-03T14:12:02.636Z,99671.17
2022-10-03T14:14:11.539Z,99686.12
2022-10-03T14:16:30.259Z,99680.23
2022-10-03T14:18:36.389Z,99680.54
2022-10-03T14:20:46.988Z,99682.03
2022-10-03T14:22:59.157Z,99692.66
2022-10-03T14:25:06.386Z,99703.23
2022-10-03T14:27:13.246Z,99698.3
2022-10-03T14:29:21.325Z,99689.02
2022-10-03T14:31:27.949Z,99688.42
2022-10-03T14:33:34.392Z,99697.7
2022-10-03T14:35:41.033Z,99710.78
2022-10-03T14:37:47.869Z,99708.88
2022-10-03T14:40:00.337Z,99706.13
2022-10-03T14:42:14.454Z,99711.97
2022-10-03T14:44:37.055Z,99707.09
2022-10-03T14:46:49.649Z,99707.86
2022-10-03T14:49:05.931Z,99718.36
2022-10-03T14:51:56.838Z,99726.31
2022-10-03T14:54:03.780Z,99722.55
2022-10-03T14:56:13.577Z,99733.95
2022-10-03T14:58:20.402Z,99730.41
2022-10-03T15:00:28.279Z,99740.77
2022-10-03T15:02:35.194Z,99748.56
2022-10-03T15:04:41.806Z,99748.52
2022-10-03T15:06:51.275Z,99751
2022-10-03T15:08:58.381Z,99762.63
2022-10-03T15:11:05.929Z,99760.11
2022-10-03T15:13:12.690Z,99770.05
2022-10-03T15:15:19.412Z,99772.08
2022-10-03T15:17:25.926Z,99771.77
2022-10-03T15:19:32.734Z,99766.47
2022-10-03T15:21:42.949Z,99775.23
2022-10-03T15:23:49.763Z,99783.06
2022-10-03T15:25:56.714Z,99778.73
2022-10-03T15:28:03.697Z,99786.64
2022-10-03T15:30:10.798Z,99788.56
2022-10-03T15:32:17.440Z,99791.67
2022-10-03T15:34:27.831Z,99791.02
2022-10-03T15:36:37.823Z,99792.88
2022-10-03T15:38:44.979Z,99792.23
2022-10-03T15:40:51.546Z,99801.45
2022-10-03T15:43:02.074Z,99791.28
2022-10-03T15:45:10.804Z,99801.42
2022-10-03T15:47:19.495Z,99804.34
2022-10-03T15:49:26.405Z,99799.98
2022-10-03T15:51:33.177Z,99807.02
2022-10-03T15:53:42.223Z,99806.38
2022-10-03T15:55:50.102Z,99812.48
2022-10-03T15:57:56.499Z,99813.53
2022-10-03T16:00:05.476Z,99817.54
2022-10-03T16:02:13.693Z,99824.02
2022-10-03T16:04:24.384Z,99824.69
2022-10-03T16:06:37.620Z,99826.27
2022-10-03T16:08:45.599Z,99827.38
2022-10-03T16:10:53.460Z,99834.53
2022-10-03T16:13:00.315Z,99832.68
2022-10-03T16:15:17.227Z,99834.55
2022-10-03T16:17:28.109Z,99834.9
2022-10-03T16:19:38.406Z,99837.83
2022-10-03T16:21:48.202Z,99840.85
2022-10-03T16:24:00.591Z,99835.76
2022-10-03T16:26:09.925Z,99847.59
2022-10-03T16:28:17.138Z,99842.8
2022-10-03T16:30:23.755Z,99841.65
2022-10-03T16:32:31.108Z,99843.21
2022-10-03T16:34:38.331Z,99849.2
2022-10-03T16:36:49.810Z,99850.59
2022-10-03T16:38:56.234Z,99849.16
2022-10-03T16:41:03.349Z,99845.77
2022-10-03T16:43:11.217Z,99846.17
2022-10-03T16:45:18.892Z,99850.39
2022-10-03T16:47:31.833Z,99848.57
2022-10-03T16:49:38.803Z,99851.52
2022-10-03T16:51:46.224Z,99856.3
2022-10-03T16:53:53.665Z,99856.95
2022-10-03T16:56:02.532Z,99859.78
2022-10-03T16:58:17.650Z,99863.53
2022-10-03T17:00:27.548Z,99863.33
2022-10-03T17:02:34.798Z,99862.89
2022-10-03T17:04:43.107Z,99862.7
2022-10-03T17:06:59.556Z,99866.33
2022-10-03T17:09:12.393Z,99871.95
2022-10-03T17:11:23.605Z,99866.47
2022-10-03T17:13:33.651Z,99871.52
2022-10-03T17:18:47.966Z,99873.02
2022-10-03T17:20:59.274Z,99871.95
2022-10-03T17:23:18.510Z,99872.33
2022-10-03T17:25:28.001Z,99875.23
2022-10-03T17:27:36.697Z,99878.82
2022-10-03T17:29:53.494Z,99875.67
2022-10-03T17:32:01.804Z,99874.34
2022-10-03T17:34:10.751Z,99868.73
2022-10-03T17:36:24.192Z,99870.42
2022-10-03T17:38:54.238Z,99872.7
2022-10-03T17:41:03.922Z,99875.02
2022-10-03T17:43:12.225Z,99875.63
2022-10-03T17:45:19.674Z,99881.66
2022-10-03T17:47:26.699Z,99875.73
2022-10-03T17:49:36.027Z,99878.45
2022-10-03T17:51:46.532Z,99880.02
2022-10-03T17:53:59.764Z,99875.92
2022-10-03T17:56:09.586Z,99877.84
2022-10-03T17:58:17.860Z,99886.42
2022-10-03T18:00:25.726Z,99885.02
2022-10-03T18:02:36.037Z,99890.55
2022-10-03T18:04:45.315Z,99892.2
2022-10-03T18:06:52.275Z,99897.6
2022-10-03T18:09:01.996Z,99903.17
2022-10-03T18:11:10.444Z,99900.67
2022-10-03T18:13:26.809Z,99904.95
2022-10-03T18:15:38.791Z,99904.16
2022-10-03T18:17:48.119Z,99904.63
2022-10-03T18:19:59.021Z,99906.21
2022-10-03T18:22:11.667Z,99908.83
2022-10-03T18:24:18.240Z,99909.23
2022-10-03T18:26:25.773Z,99905.76
2022-10-03T18:28:35.443Z,99912.67
2022-10-03T18:30:46.346Z,99910.19
2022-10-03T18:32:59.249Z,99914.81
2022-10-03T18:35:09.965Z,99911.5
2022-10-03T18:37:20.973Z,99915.61
2022-10-03T18:39:30.776Z,99910.8
2022-10-03T18:41:46.167Z,99912.53
2022-10-03T18:43:55.605Z,99917.87
2022-10-03T18:46:06.610Z,99913.59
2022-10-03T18:48:16.689Z,99913.52
2022-10-03T18:50:25.375Z,99919.95
2022-10-03T18:52:39.656Z,99920.52
2022-10-03T18:54:46.915Z,99924.75
2022-10-03T18:56:57.237Z,99923.37
2022-10-03T18:59:10.324Z,99930.54
2022-10-03T19:01:26.127Z,99927.41
2022-10-03T19:03:38.772Z,99925.86
2022-10-03T19:05:55.407Z,99936.64
2022-10-03T19:08:02.671Z,99932.58
2022-10-03T19:10:10.988Z,99932.28
2022-10-03T19:12:19.081Z,99930.41
2022-10-03T19:14:28.910Z,99936.86
2022-10-03T19:16:35.894Z,99936.36
2022-10-03T19:18:46.207Z,99935.88
2022-10-03T19:20:54.750Z,99933.34
2022-10-03T19:23:02.237Z,99939.09
2022-10-03T19:25:11.331Z,99936.02
2022-10-03T19:27:21.355Z,99938.42
2022-10-03T19:29:34.254Z,99941.3
2022-10-03T19:31:44.098Z,99938.74
2022-10-03T19:33:51.908Z,99936.48
2022-10-03T19:35:59.695Z,99936.05
2022-10-03T19:38:08.378Z,99940.67
2022-10-03T19:40:15.376Z,99935.98
2022-10-03T19:42:24.850Z,99937.3
2022-10-03T19:44:34.562Z,99942.68
2022-10-03T19:46:41.770Z,99945.06
2022-10-03T19:48:49.167Z,99943.92
2022-10-03T19:50:55.767Z,99945.06
2022-10-03T19:53:02.938Z,99944.94
2022-10-03T19:55:10.565Z,99941.61
2022-10-03T19:57:19.235Z,99939.94
2022-10-03T19:59:34.137Z,99940.18
2022-10-03T20:01:41.509Z,99936.07
2022-10-03T20:03:49.868Z,99939.3
2022-10-03T20:05:56.417Z,99939.2
2022-10-03T20:08:04.104Z,99939.8
2022-10-03T20:10:12.556Z,99935.99
2022-10-03T20:12:22.720Z,99936.45
2022-10-03T20:14:30.114Z,99933.34
2022-10-03T20:16:38.182Z,99936.42
2022-10-03T20:18:45.850Z,99934.11
2022-10-03T20:20:54.784Z,99943.69
2022-10-03T20:23:02.355Z,99940.11
2022-10-03T20:25:10.234Z,99938.31
2022-10-03T20:27:18.356Z,99941.77
2022-10-03T20:29:28.082Z,99943.11
2022-10-03T20:31:34.915Z,99941.59
2022-10-03T20:33:44.691Z,99937.84
2022-10-03T20:35:53.334Z,99935.19
2022-10-03T20:38:01.416Z,99936.73
2022-10-03T20:40:09.977Z,99929.97
2022-10-03T20:42:16.520Z,99934.53
2022-10-03T20:44:24.177Z,99938.09
2022-10-03T20:46:30.299Z,99935.41
2022-10-03T20:48:43.704Z,99934.63
2022-10-03T20:50:52.631Z,99937.24
2022-10-03T20:53:02.227Z,99945.02
2022-10-03T20:55:09.745Z,99943.75
2022-10-03T20:57:16.361Z,99947.75
2022-10-03T20:59:23.214Z,99945.97
2022-10-03T21:01:32.353Z,99950.61
2022-10-03T21:03:42.609Z,99944.5
2022-10-03T21:05:49.116Z,99938.36
2022-10-03T21:07:57.646Z,99944.87
2022-10-03T21:10:04.469Z,99949.05
2022-10-03T21:12:17.466Z,99944.95
2022-10-03T21:14:29.576Z,99945.66
2022-10-03T21:16:43.182Z,99947.73
2022-10-03T21:18:49.989Z,99949.08
2022-10-03T21:20:59.424Z,99945.67
2022-10-03T21:23:12.176Z,99951.8
2022-10-03T21:25:21.225Z,99942.58
2022-10-03T21:27:31.466Z,99941.44
2022-10-03T21:29:40.361Z,99953.25
2022-10-03T21:31:46.472Z,99950.23
2022-10-03T21:33:52.534Z,99954.55
2022-10-03T21:36:03.637Z,99942.92
2022-10-03T21:38:11.723Z,99946.58
2022-10-03T21:40:20.277Z,99939.14
2022-10-03T21:42:32.988Z,99939.66
2022-10-03T21:44:43.288Z,99944.23
2022-10-03T21:46:52.412Z,99938.66
2022-10-03T21:49:00.684Z,99937.59
2022-10-03T21:51:07.257Z,99939.17
2022-10-03T21:53:13.773Z,99944.27
2022-10-03T21:55:51.542Z,99947.5
2022-10-03T21:58:01.798Z,99944.59
2022-10-03T22:00:11.540Z,99948.75
2022-10-03T22:02:21.011Z,99941.41
2022-10-03T22:04:27.155Z,99938.5
2022-10-03T22:06:33.348Z,99944.37
2022-10-03T22:08:39.529Z,99947.45
2022-10-03T22:10:48.760Z,99947.17
2022-10-03T22:12:59.047Z,99943.28
2022-10-03T22:15:06.073Z,99950.18
2022-10-03T22:17:14.601Z,99946.13
2022-10-03T22:19:20.505Z,99943.56
2022-10-03T22:21:27.971Z,99936.44
2022-10-03T22:23:35.487Z,99936.25
2022-10-03T22:25:40.868Z,99940.16
2022-10-03T22:27:46.596Z,99943.34
2022-10-03T22:29:52.419Z,99943.07
2022-10-03T22:31:59.878Z,99946.48
2022-10-03T22:34:05.742Z,99946.13
2022-10-03T22:36:14.654Z,99945.34
2022-10-03T22:38:22.172Z,99948.34
2022-10-03T22:40:30.579Z,99935.18
2022-10-03T22:42:36.776Z,99938.52
2022-10-03T22:44:43.402Z,99944.53
2022-10-03T22:46:51.921Z,99946.98
2022-10-03T22:48:57.396Z,99947.45
2022-10-03T22:51:03.172Z,99947.95
2022-10-03T22:53:13.832Z,99944.33
2022-10-03T22:55:19.190Z,99948.45
2022-10-03T22:57:27.531Z,99946.56
2022-10-03T22:59:39.690Z,99946.94
2022-10-03T23:01:48.544Z,99947.2
2022-10-03T23:03:56.535Z,99943.92
2022-10-03T23:06:06.220Z,99938.95
2022-10-03T23:08:11.840Z,99936.43
2022-10-03T23:10:17.808Z,99938.63
2022-10-03T23:12:24.044Z,99937.29
2022-10-03T23:14:32.735Z,99932.98
2022-10-03T23:16:38.464Z,99934.59
2022-10-03T23:18:46.673Z,99929.33
2022-10-03T23:20:52.440Z,99936.13
2022-10-03T23:23:01.490Z,99935.76
2022-10-03T23:25:13.494Z,99929.03
2022-10-03T23:27:19.397Z,99925
2022-10-03T23:29:28.226Z,99930.56
2022-10-03T23:31:37.526Z,99931.61
2022-10-03T23:33:44.067Z,99936.77
2022-10-03T23:35:49.661Z,99936.73
2022-10-03T23:37:55.410Z,99933
2022-10-03T23:40:00.874Z,99932.17
2022-10-03T23:42:08.980Z,99935.38
2022-10-03T23:44:14.996Z,99932.88
2022-10-03T23:46:24.340Z,99931.91
2022-10-03T23:48:38.878Z,99930.17
2022-10-03T23:50:44.485Z,99935.53
2022-10-03T23:52:52.741Z,99932.34
2022-10-03T23:55:01.839Z,99930.07
2022-10-03T23:57:11.630Z,99935.81
2022-10-03T23:59:20.194Z,99936.6
